Time;durP1;ratioP1;P1;durP2;ratioP2;P2;SDS_P1;SDS_P2;PMS_P1;PMS_P2;Temp;Humidity;BMP_temperature;BMP_pressure;BME280_temperature;BME280_humidity;BME280_pressure;Samples;Min_cycle;Max_cycle;Signal;HPM_P1;HPM_P2
2023/04/15 00:00:07;;;;;;;10.32;5.20;;;;;;;;;;5063666;28;20047;-67
2023/04/15 00:02:34;;;;;;;9.50;4.38;;;;;;;;;;5066051;28;20133;-67
2023/04/15 00:05:01;;;;;;;15.63;4.90;;;;;;;;;;5065248;28;20056;-68
2023/04/15 00:07:28;;;;;;;12.68;4.97;;;;;;;;;;5066236;28;20043;-67
2023/04/15 00:09:56;;;;;;;12.02;5.25;;;;;;;;;;5065786;28;20048;-67
2023/04/15 00:12:23;;;;;;;15.93;5.88;;;;;;;;;;5047249;28;20044;-67
2023/04/15 00:14:49;;;;;;;13.50;5.15;;;;;;;;;;5066139;28;20044;-67
2023/04/15 00:17:16;;;;;;;11.75;5.93;;;;;;;;;;5066722;28;20068;-67
2023/04/15 00:19:44;;;;;;;9.45;5.28;;;;;;;;;;5062144;28;20146;-68
2023/04/15 00:22:11;;;;;;;13.85;5.78;;;;;;;;;;5065704;28;20076;-68
2023/04/15 00:24:37;;;;;;;11.20;5.47;;;;;;;;;;5069197;28;20143;-67
2023/04/15 00:27:04;;;;;;;15.02;5.55;;;;;;;;;;5069531;28;20028;-67
2023/04/15 00:29:30;;;;;;;17.05;6.05;;;;;;;;;;5067953;28;20049;-67
2023/04/15 00:31:56;;;;;;;13.77;5.38;;;;;;;;;;5049820;28;20055;-67
2023/04/15 00:34:23;;;;;;;14.23;6.25;;;;;;;;;;5069748;28;20139;-67
2023/04/15 00:36:51;;;;;;;12.65;5.93;;;;;;;;;;5051309;28;20075;-67
2023/04/15 00:39:17;;;;;;;9.70;5.90;;;;;;;;;;5066488;28;20033;-68
2023/04/15 00:41:44;;;;;;;19.23;5.80;;;;;;;;;;5050713;28;20045;-67
2023/04/15 00:44:10;;;;;;;15.43;6.50;;;;;;;;;;5067596;28;20115;-67
2023/04/15 00:46:38;;;;;;;14.27;6.47;;;;;;;;;;5051387;28;20052;-67
2023/04/15 00:49:05;;;;;;;16.83;6.85;;;;;;;;;;5051454;28;20052;-68
2023/04/15 00:51:32;;;;;;;18.60;7.03;;;;;;;;;;5069395;28;20047;-67
2023/04/15 00:54:00;;;;;;;16.20;6.53;;;;;;;;;;5068630;28;20123;-67
2023/04/15 00:56:26;;;;;;;21.13;7.32;;;;;;;;;;5051910;28;20044;-68
2023/04/15 00:58:53;;;;;;;16.92;6.50;;;;;;;;;;5067812;28;20337;-67
2023/04/15 01:01:22;;;;;;;14.35;6.88;;;;;;;;;;5051096;28;20057;-67
2023/04/15 01:03:49;;;;;;;16.80;7.90;;;;;;;;;;5069064;28;20102;-67
2023/04/15 01:06:16;;;;;;;17.27;7.45;;;;;;;;;;5069297;28;20135;-68
2023/04/15 01:08:42;;;;;;;15.50;7.70;;;;;;;;;;5049941;28;20052;-67
2023/04/15 01:11:09;;;;;;;16.92;7.07;;;;;;;;;;5068804;28;20502;-67
2023/04/15 01:13:36;;;;;;;13.20;7.53;;;;;;;;;;5048396;28;20053;-68
2023/04/15 01:16:02;;;;;;;16.13;7.57;;;;;;;;;;5068518;28;20484;-67
2023/04/15 01:18:29;;;;;;;15.38;7.15;;;;;;;;;;5068357;28;20118;-67
2023/04/15 01:20:55;;;;;;;15.15;8.25;;;;;;;;;;5068193;28;20045;-68
2023/04/15 01:23:22;;;;;;;14.27;7.70;;;;;;;;;;5067072;28;20040;-68
2023/04/15 01:25:49;;;;;;;19.40;8.25;;;;;;;;;;5050741;28;20044;-67
2023/04/15 01:28:15;;;;;;;16.90;8.02;;;;;;;;;;5068069;28;20746;-67
2023/04/15 01:30:42;;;;;;;15.18;8.18;;;;;;;;;;5066918;28;20642;-68
2023/04/15 01:33:08;;;;;;;17.48;9.20;;;;;;;;;;5067929;28;20672;-67
2023/04/15 01:35:34;;;;;;;23.48;9.57;;;;;;;;;;5067433;28;20052;-67
2023/04/15 01:38:05;;;;;;;18.70;8.55;;;;;;;;;;5068503;28;20068;-67
2023/04/15 01:40:31;;;;;;;18.58;9.15;;;;;;;;;;5050278;28;20040;-67
2023/04/15 01:42:57;;;;;;;15.65;9.77;;;;;;;;;;5068310;28;20132;-67
2023/04/15 01:45:23;;;;;;;13.55;8.38;;;;;;;;;;5051351;28;20076;-67
2023/04/15 01:47:49;;;;;;;16.83;9.07;;;;;;;;;;5049858;28;20056;-67
2023/04/15 01:50:15;;;;;;;16.88;9.00;;;;;;;;;;5049616;28;20048;-67
2023/04/15 01:52:42;;;;;;;14.93;9.23;;;;;;;;;;5050381;28;20189;-68
2023/04/15 01:55:08;;;;;;;19.52;8.98;;;;;;;;;;5065737;28;20067;-67
2023/04/15 01:57:35;;;;;;;17.30;9.30;;;;;;;;;;5068296;28;20152;-67
2023/04/15 02:00:03;;;;;;;16.30;9.38;;;;;;;;;;5068503;28;20051;-67
2023/04/15 02:02:29;;;;;;;15.77;9.43;;;;;;;;;;5050057;28;20123;-67
2023/04/15 02:04:55;;;;;;;21.58;10.68;;;;;;;;;;5049236;28;20048;-67
2023/04/15 02:07:23;;;;;;;18.33;10.20;;;;;;;;;;5067857;28;20492;-67
2023/04/15 02:09:49;;;;;;;18.52;10.20;;;;;;;;;;5067609;28;20097;-67
2023/04/15 02:12:15;;;;;;;16.17;10.55;;;;;;;;;;5068069;28;20144;-67
2023/04/15 02:14:41;;;;;;;17.90;10.63;;;;;;;;;;5068016;28;20049;-68
2023/04/15 02:17:07;;;;;;;17.17;10.52;;;;;;;;;;5067174;28;20037;-67
2023/04/15 02:19:34;;;;;;;20.27;9.95;;;;;;;;;;5067031;28;20138;-68
2023/04/15 02:22:01;;;;;;;15.77;9.98;;;;;;;;;;5066589;28;20036;-67
2023/04/15 02:24:27;;;;;;;21.25;10.43;;;;;;;;;;5067797;28;20052;-67
2023/04/15 02:26:54;;;;;;;20.52;11.23;;;;;;;;;;5068266;28;20095;-67
2023/04/15 02:29:20;;;;;;;18.25;10.65;;;;;;;;;;5066173;28;20053;-67
2023/04/15 02:31:47;;;;;;;17.45;10.90;;;;;;;;;;5066501;28;20543;-67
2023/04/15 02:34:13;;;;;;;16.55;10.13;;;;;;;;;;5067399;28;20190;-67
2023/04/15 02:36:39;;;;;;;17.13;11.20;;;;;;;;;;5066958;28;20051;-67
2023/04/15 02:39:06;;;;;;;20.42;11.18;;;;;;;;;;5067570;28;20123;-68
2023/04/15 02:41:32;;;;;;;18.80;11.98;;;;;;;;;;5067525;28;20400;-67
2023/04/15 02:43:58;;;;;;;16.88;10.50;;;;;;;;;;5067364;28;20115;-67
2023/04/15 02:46:24;;;;;;;18.90;10.30;;;;;;;;;;5066607;28;20049;-67
2023/04/15 02:48:52;;;;;;;18.83;10.95;;;;;;;;;;5066791;28;20046;-67
2023/04/15 02:51:20;;;;;;;20.20;12.38;;;;;;;;;;5067375;28;20078;-67
2023/04/15 02:53:47;;;;;;;19.80;11.70;;;;;;;;;;5067487;28;20094;-67
2023/04/15 02:56:16;;;;;;;25.25;11.00;;;;;;;;;;5067197;28;20128;-67
2023/04/15 02:58:43;;;;;;;21.13;12.50;;;;;;;;;;5067083;28;20481;-67
2023/04/15 03:01:10;;;;;;;15.77;10.93;;;;;;;;;;5065807;28;20471;-67
2023/04/15 03:03:36;;;;;;;20.65;11.65;;;;;;;;;;5049229;28;20119;-67
2023/04/15 03:06:02;;;;;;;21.33;11.45;;;;;;;;;;5067163;28;21338;-67
2023/04/15 03:08:28;;;;;;;17.95;11.82;;;;;;;;;;5063904;28;20079;-67
2023/04/15 03:10:55;;;;;;;20.60;12.20;;;;;;;;;;5067428;28;20499;-67
2023/04/15 03:13:21;;;;;;;18.65;11.68;;;;;;;;;;5067205;28;20044;-67
2023/04/15 03:15:47;;;;;;;21.85;11.77;;;;;;;;;;5047410;28;20045;-67
2023/04/15 03:18:13;;;;;;;20.17;12.90;;;;;;;;;;5048712;28;20086;-67
2023/04/15 03:20:40;;;;;;;23.10;13.10;;;;;;;;;;5048249;28;20087;-67
2023/04/15 03:23:06;;;;;;;20.25;12.52;;;;;;;;;;5067256;28;20041;-67
2023/04/15 03:25:32;;;;;;;25.00;13.18;;;;;;;;;;5049208;28;20055;-67
2023/04/15 03:27:59;;;;;;;20.85;13.20;;;;;;;;;;5064356;28;20041;-67
2023/04/15 03:30:25;;;;;;;20.67;12.82;;;;;;;;;;5066652;28;20071;-67
2023/04/15 03:32:52;;;;;;;22.50;12.65;;;;;;;;;;5048348;28;20045;-67
2023/04/15 03:35:18;;;;;;;16.98;11.90;;;;;;;;;;5066435;28;20037;-67
2023/04/15 03:37:44;;;;;;;18.35;11.75;;;;;;;;;;5066668;28;20049;-67
2023/04/15 03:40:10;;;;;;;19.73;11.65;;;;;;;;;;5066562;28;20047;-67
2023/04/15 03:42:37;;;;;;;19.48;12.55;;;;;;;;;;5065370;28;20123;-67
2023/04/15 03:45:03;;;;;;;19.27;11.40;;;;;;;;;;5066692;28;20044;-67
2023/04/15 03:47:29;;;;;;;20.55;12.57;;;;;;;;;;5046595;28;20100;-67
2023/04/15 03:49:55;;;;;;;20.30;11.90;;;;;;;;;;5065434;28;20052;-67
2023/04/15 03:52:21;;;;;;;18.15;12.13;;;;;;;;;;5066433;28;20036;-67
2023/04/15 03:54:47;;;;;;;19.55;13.20;;;;;;;;;;5066066;28;20040;-67
2023/04/15 03:57:13;;;;;;;18.70;12.18;;;;;;;;;;5049585;28;20250;-67
2023/04/15 03:59:40;;;;;;;19.75;12.18;;;;;;;;;;5071276;28;20056;-67
2023/04/15 04:02:06;;;;;;;19.90;11.75;;;;;;;;;;5052845;28;20048;-67
2023/04/15 04:04:32;;;;;;;20.88;12.85;;;;;;;;;;5069531;28;22381;-67
2023/04/15 04:06:58;;;;;;;21.00;13.07;;;;;;;;;;5070085;28;20036;-67
2023/04/15 04:09:24;;;;;;;19.15;12.88;;;;;;;;;;5070086;28;20529;-67
2023/04/15 04:11:50;;;;;;;17.92;12.45;;;;;;;;;;5069691;28;20116;-67
2023/04/15 04:14:16;;;;;;;19.80;12.52;;;;;;;;;;5070381;28;20048;-67
2023/04/15 04:16:43;;;;;;;19.25;12.90;;;;;;;;;;5069966;28;20163;-67
2023/04/15 04:19:09;;;;;;;19.52;12.95;;;;;;;;;;5069843;28;20131;-67
2023/04/15 04:21:35;;;;;;;22.02;13.13;;;;;;;;;;5069883;28;20133;-67
2023/04/15 04:24:02;;;;;;;23.15;12.68;;;;;;;;;;5051088;28;20048;-67
2023/04/15 04:26:28;;;;;;;19.55;12.02;;;;;;;;;;5070763;28;20047;-67
2023/04/15 04:28:54;;;;;;;21.73;12.77;;;;;;;;;;5070521;28;20040;-67
2023/04/15 04:31:21;;;;;;;23.88;12.95;;;;;;;;;;5035327;28;20568;-67
2023/04/15 04:33:47;;;;;;;20.60;12.38;;;;;;;;;;5051271;28;20076;-67
2023/04/15 04:36:13;;;;;;;22.95;12.75;;;;;;;;;;5069794;28;20041;-67
2023/04/15 04:38:39;;;;;;;20.13;13.38;;;;;;;;;;5069471;28;20033;-67
2023/04/15 04:41:05;;;;;;;20.63;13.05;;;;;;;;;;5051865;28;20124;-67
2023/04/15 04:43:31;;;;;;;20.65;13.75;;;;;;;;;;5069526;28;20044;-67
2023/04/15 04:45:57;;;;;;;21.42;14.15;;;;;;;;;;5050987;28;20052;-67
2023/04/15 04:48:23;;;;;;;18.10;13.32;;;;;;;;;;5051386;28;20036;-67
2023/04/15 04:50:50;;;;;;;22.20;12.98;;;;;;;;;;5051378;28;20044;-67
2023/04/15 04:53:16;;;;;;;24.85;15.05;;;;;;;;;;5069414;28;20051;-67
2023/04/15 04:55:43;;;;;;;21.15;14.77;;;;;;;;;;5051142;28;20056;-67
2023/04/15 04:58:09;;;;;;;21.55;14.40;;;;;;;;;;5069366;28;20043;-67
2023/04/15 05:00:36;;;;;;;23.45;14.60;;;;;;;;;;5063936;28;20044;-67
2023/04/15 05:03:03;;;;;;;26.58;14.60;;;;;;;;;;5046116;28;20475;-67
2023/04/15 05:05:29;;;;;;;22.80;12.95;;;;;;;;;;5066956;28;20094;-67
2023/04/15 05:07:55;;;;;;;24.58;14.00;;;;;;;;;;5066995;28;20044;-67
2023/04/15 05:10:21;;;;;;;21.15;13.10;;;;;;;;;;5068751;28;20420;-68
2023/04/15 05:12:47;;;;;;;23.77;13.18;;;;;;;;;;5050697;28;20437;-67
2023/04/15 05:15:14;;;;;;;22.10;14.27;;;;;;;;;;5067950;28;20232;-67
2023/04/15 05:17:40;;;;;;;23.30;14.45;;;;;;;;;;5069686;28;20432;-68
2023/04/15 05:20:06;;;;;;;22.38;13.63;;;;;;;;;;5068381;28;20064;-67
2023/04/15 05:22:33;;;;;;;23.42;14.65;;;;;;;;;;5068678;28;20041;-68
2023/04/15 05:24:59;;;;;;;19.92;13.93;;;;;;;;;;5068955;28;20528;-67
2023/04/15 05:27:25;;;;;;;29.35;15.77;;;;;;;;;;5067723;28;20492;-67
2023/04/15 05:29:51;;;;;;;22.40;14.05;;;;;;;;;;5050588;28;20040;-67
2023/04/15 05:32:17;;;;;;;21.60;13.70;;;;;;;;;;5068766;28;20044;-67
2023/04/15 05:34:43;;;;;;;20.95;13.10;;;;;;;;;;5068202;28;20712;-67
2023/04/15 05:37:10;;;;;;;23.35;14.23;;;;;;;;;;5068507;28;20121;-67
2023/04/15 05:39:36;;;;;;;21.40;12.82;;;;;;;;;;5064314;28;20052;-67
2023/04/15 05:42:02;;;;;;;18.52;12.32;;;;;;;;;;5067973;28;20051;-67
2023/04/15 05:44:28;;;;;;;19.95;11.60;;;;;;;;;;5069628;28;20119;-67
2023/04/15 05:46:54;;;;;;;18.65;12.13;;;;;;;;;;5064583;28;20086;-67
2023/04/15 05:49:20;;;;;;;18.52;12.38;;;;;;;;;;5067655;28;20051;-67
2023/04/15 05:51:47;;;;;;;26.10;13.63;;;;;;;;;;5047132;28;21486;-67
2023/04/15 05:54:13;;;;;;;21.25;13.68;;;;;;;;;;5068422;28;20044;-67
2023/04/15 05:56:39;;;;;;;21.98;13.73;;;;;;;;;;5067071;28;20586;-67
2023/04/15 05:59:06;;;;;;;24.50;14.38;;;;;;;;;;5067770;28;20041;-68
2023/04/15 06:01:33;;;;;;;21.80;13.27;;;;;;;;;;5068951;28;20043;-67
2023/04/15 06:04:00;;;;;;;24.05;14.23;;;;;;;;;;5067947;28;20049;-67
2023/04/15 06:06:26;;;;;;;21.65;13.38;;;;;;;;;;5032862;28;20061;-67
2023/04/15 06:08:54;;;;;;;19.40;12.55;;;;;;;;;;5068266;28;20040;-68
2023/04/15 06:11:20;;;;;;;20.50;12.18;;;;;;;;;;5066963;28;20040;-68
2023/04/15 06:13:47;;;;;;;19.38;11.38;;;;;;;;;;5068221;28;20040;-67
2023/04/15 06:16:13;;;;;;;20.30;12.40;;;;;;;;;;5065412;28;20068;-67
2023/04/15 06:18:39;;;;;;;18.90;11.85;;;;;;;;;;5067271;28;20056;-67
2023/04/15 06:21:05;;;;;;;19.08;12.23;;;;;;;;;;5066218;28;20154;-67
2023/04/15 06:23:35;;;;;;;23.83;13.15;;;;;;;;;;5066623;28;20107;-67
2023/04/15 06:26:01;;;;;;;19.08;12.95;;;;;;;;;;5067657;28;20040;-68
2023/04/15 06:28:27;;;;;;;21.88;13.57;;;;;;;;;;5067684;28;20091;-67
2023/04/15 06:30:54;;;;;;;19.52;12.20;;;;;;;;;;5061168;28;20044;-67
2023/04/15 06:33:20;;;;;;;21.92;12.80;;;;;;;;;;5068169;28;20043;-67
2023/04/15 06:35:48;;;;;;;21.17;13.27;;;;;;;;;;5067068;28;20056;-67
2023/04/15 06:38:14;;;;;;;21.15;13.38;;;;;;;;;;5066348;28;20063;-67
2023/04/15 06:40:41;;;;;;;20.70;13.55;;;;;;;;;;5049233;28;20115;-67
2023/04/15 06:43:08;;;;;;;18.63;12.45;;;;;;;;;;5067308;28;20052;-67
2023/04/15 06:45:34;;;;;;;26.40;14.93;;;;;;;;;;5063829;28;20044;-67
2023/04/15 06:48:00;;;;;;;24.55;14.32;;;;;;;;;;5050182;28;20063;-68
2023/04/15 06:50:26;;;;;;;18.65;12.95;;;;;;;;;;5049025;28;20105;-67
2023/04/15 06:52:54;;;;;;;20.60;14.20;;;;;;;;;;5066314;28;20044;-67
2023/04/15 06:55:21;;;;;;;22.25;13.82;;;;;;;;;;5067632;28;20059;-67
2023/04/15 06:57:47;;;;;;;19.88;14.18;;;;;;;;;;5066836;28;20063;-67
2023/04/15 07:00:14;;;;;;;22.00;14.50;;;;;;;;;;5049474;28;20040;-67
2023/04/15 07:02:40;;;;;;;21.33;13.93;;;;;;;;;;5067459;28;20121;-67
2023/04/15 07:05:07;;;;;;;24.95;14.73;;;;;;;;;;5066740;28;20115;-67
2023/04/15 07:07:33;;;;;;;19.02;14.30;;;;;;;;;;5066236;28;20044;-67
2023/04/15 07:10:01;;;;;;;21.27;14.00;;;;;;;;;;5066631;28;20040;-67
2023/04/15 07:12:27;;;;;;;20.45;13.55;;;;;;;;;;5067084;28;20074;-67
2023/04/15 07:14:53;;;;;;;18.25;11.57;;;;;;;;;;5048366;28;20040;-68
2023/04/15 07:17:19;;;;;;;15.93;10.32;;;;;;;;;;5066629;28;20052;-67
2023/04/15 07:19:46;;;;;;;15.02;9.77;;;;;;;;;;5065059;28;20381;-67
2023/04/15 07:22:12;;;;;;;15.10;10.77;;;;;;;;;;5066700;28;20145;-67
2023/04/15 07:24:38;;;;;;;14.57;9.45;;;;;;;;;;5066414;28;20044;-67
2023/04/15 07:27:04;;;;;;;14.10;8.25;;;;;;;;;;5066302;28;20037;-67
2023/04/15 07:29:31;;;;;;;11.32;7.47;;;;;;;;;;5066352;28;20076;-67
2023/04/15 07:31:57;;;;;;;11.60;7.57;;;;;;;;;;5065869;28;20106;-67
2023/04/15 07:34:23;;;;;;;13.45;7.60;;;;;;;;;;5065836;28;20047;-67
2023/04/15 07:36:50;;;;;;;10.32;7.43;;;;;;;;;;5065746;28;20404;-66
2023/04/15 07:39:17;;;;;;;10.93;7.30;;;;;;;;;;5048796;28;20041;-66
2023/04/15 07:41:44;;;;;;;12.43;7.75;;;;;;;;;;5066740;28;20040;-66
2023/04/15 07:44:10;;;;;;;10.57;6.18;;;;;;;;;;5065946;28;20045;-67
2023/04/15 07:46:37;;;;;;;8.90;6.03;;;;;;;;;;5066802;28;20131;-67
2023/04/15 07:49:03;;;;;;;10.95;6.07;;;;;;;;;;5065000;28;20044;-67
2023/04/15 07:51:29;;;;;;;11.00;5.97;;;;;;;;;;5066467;28;20061;-67
2023/04/15 07:53:55;;;;;;;9.45;5.57;;;;;;;;;;5067031;28;20036;-67
2023/04/15 07:56:21;;;;;;;14.27;6.07;;;;;;;;;;5066342;28;20648;-67
2023/04/15 07:58:48;;;;;;;11.30;5.28;;;;;;;;;;5066443;28;20150;-67
2023/04/15 08:01:14;;;;;;;8.18;4.95;;;;;;;;;;5065996;28;20137;-67
2023/04/15 08:03:40;;;;;;;7.85;4.30;;;;;;;;;;5047151;28;20051;-67
2023/04/15 08:06:06;;;;;;;10.00;4.97;;;;;;;;;;5066255;28;20053;-67
2023/04/15 08:08:32;;;;;;;7.25;3.90;;;;;;;;;;5067109;28;20077;-67
2023/04/15 08:10:59;;;;;;;8.63;4.32;;;;;;;;;;5064831;28;20722;-67
2023/04/15 08:13:26;;;;;;;11.88;4.88;;;;;;;;;;5065909;28;20076;-67
2023/04/15 08:16:12;;;;;;;11.00;5.20;;;;;;;;;;5064449;28;20036;-67
2023/04/15 08:18:38;;;;;;;7.32;4.55;;;;;;;;;;5065961;28;20088;-66
2023/04/15 08:21:04;;;;;;;8.65;4.95;;;;;;;;;;5065256;28;20037;-67
2023/04/15 08:23:32;;;;;;;8.73;5.10;;;;;;;;;;5065016;28;20036;-67
2023/04/15 08:25:58;;;;;;;10.50;5.20;;;;;;;;;;5066208;28;20134;-66
2023/04/15 08:28:24;;;;;;;8.50;5.00;;;;;;;;;;5066700;28;20115;-67
2023/04/15 08:30:52;;;;;;;11.05;5.32;;;;;;;;;;5046809;28;20131;-67
2023/04/15 08:33:18;;;;;;;10.43;4.90;;;;;;;;;;5066259;28;20158;-67
2023/04/15 08:35:46;;;;;;;10.95;4.90;;;;;;;;;;5044414;28;20055;-67
2023/04/15 08:38:12;;;;;;;10.63;5.75;;;;;;;;;;5064744;28;20043;-67
2023/04/15 08:40:42;;;;;;;14.55;6.20;;;;;;;;;;5046847;28;20083;-67
2023/04/15 08:43:10;;;;;;;12.30;6.53;;;;;;;;;;5049688;28;20048;-67
2023/04/15 08:45:38;;;;;;;13.05;6.90;;;;;;;;;;5051358;28;20040;-67
2023/04/15 08:48:05;;;;;;;13.02;6.03;;;;;;;;;;5051400;28;20057;-67
2023/04/15 08:50:31;;;;;;;11.07;5.57;;;;;;;;;;5069175;28;20059;-66
2023/04/15 08:52:59;;;;;;;9.43;4.93;;;;;;;;;;5065583;28;20415;-67
2023/04/15 08:55:29;;;;;;;9.70;4.82;;;;;;;;;;5067335;28;20048;-67
2023/04/15 08:57:56;;;;;;;9.13;5.53;;;;;;;;;;5069078;28;20044;-67
2023/04/15 09:00:22;;;;;;;7.82;4.22;;;;;;;;;;5065715;28;20049;-67
2023/04/15 09:02:49;;;;;;;9.02;4.25;;;;;;;;;;5070022;28;20102;-67
2023/04/15 09:05:16;;;;;;;9.02;3.72;;;;;;;;;;5068320;28;20089;-67
2023/04/15 09:07:42;;;;;;;7.70;3.92;;;;;;;;;;5068496;28;20115;-67
2023/04/15 09:10:09;;;;;;;8.05;4.13;;;;;;;;;;5069116;28;20041;-67
2023/04/15 09:12:35;;;;;;;7.53;3.85;;;;;;;;;;5067719;28;20036;-67
2023/04/15 09:15:02;;;;;;;7.72;3.45;;;;;;;;;;5069442;28;20115;-67
2023/04/15 09:17:28;;;;;;;5.85;3.08;;;;;;;;;;5069993;28;20043;-68
2023/04/15 09:20:09;;;;;;;10.48;3.50;;;;;;;;;;5066781;28;20048;-68
2023/04/15 09:22:36;;;;;;;17.73;4.25;;;;;;;;;;5052355;28;20049;-68
2023/04/15 09:25:03;;;;;;;8.45;3.42;;;;;;;;;;5068189;28;20388;-68
2023/04/15 09:27:29;;;;;;;8.50;3.92;;;;;;;;;;5068073;28;20045;-68
2023/04/15 09:29:55;;;;;;;9.57;4.05;;;;;;;;;;5067526;28;20456;-68
2023/04/15 09:32:23;;;;;;;7.65;4.13;;;;;;;;;;5067991;28;20040;-67
2023/04/15 09:34:49;;;;;;;9.07;3.70;;;;;;;;;;5068020;28;20075;-68
2023/04/15 09:37:19;;;;;;;7.03;3.55;;;;;;;;;;5069285;28;20146;-68
2023/04/15 09:39:47;;;;;;;5.93;2.60;;;;;;;;;;5068951;28;20129;-68
2023/04/15 09:42:13;;;;;;;5.93;2.47;;;;;;;;;;5067513;28;20135;-68
2023/04/15 09:44:39;;;;;;;4.95;2.13;;;;;;;;;;5065279;28;20312;-68
2023/04/15 09:47:05;;;;;;;8.43;2.40;;;;;;;;;;5049767;28;20120;-68
2023/04/15 09:49:31;;;;;;;6.03;1.95;;;;;;;;;;5064892;28;20429;-68
2023/04/15 09:52:04;;;;;;;9.07;2.50;;;;;;;;;;5065564;28;20483;-68
2023/04/15 09:54:34;;;;;;;5.40;2.20;;;;;;;;;;5067400;28;20040;-68
2023/04/15 09:57:05;;;;;;;5.00;1.48;;;;;;;;;;5069078;28;20055;-68
2023/04/15 09:59:31;;;;;;;4.82;1.92;;;;;;;;;;5068794;28;20155;-68
2023/04/15 10:01:57;;;;;;;8.23;2.05;;;;;;;;;;5067286;28;20092;-68
2023/04/15 10:04:25;;;;;;;4.95;1.83;;;;;;;;;;5067953;28;20090;-68
2023/04/15 10:06:51;;;;;;;4.78;1.42;;;;;;;;;;5067539;28;20097;-68
2023/04/15 10:09:18;;;;;;;5.43;1.38;;;;;;;;;;5049303;28;20490;-68
2023/04/15 10:11:44;;;;;;;4.82;1.50;;;;;;;;;;5068080;28;20049;-68
2023/04/15 10:14:10;;;;;;;4.72;1.38;;;;;;;;;;5050708;28;20160;-68
2023/04/15 10:16:38;;;;;;;5.95;1.42;;;;;;;;;;5066510;28;20052;-68
2023/04/15 10:19:06;;;;;;;7.28;1.50;;;;;;;;;;5066714;28;20384;-68
2023/04/15 10:21:33;;;;;;;5.22;1.58;;;;;;;;;;5067740;28;20186;-68
2023/04/15 10:24:00;;;;;;;3.45;1.20;;;;;;;;;;5049643;28;20040;-68
2023/04/15 10:26:27;;;;;;;3.58;1.40;;;;;;;;;;5049771;28;20048;-68
2023/04/15 10:28:53;;;;;;;4.57;1.85;;;;;;;;;;5068548;28;20060;-68
2023/04/15 10:31:19;;;;;;;6.20;1.73;;;;;;;;;;5067080;28;20048;-68
2023/04/15 10:33:47;;;;;;;5.32;1.42;;;;;;;;;;5067338;28;20032;-68
2023/04/15 10:36:14;;;;;;;3.00;1.40;;;;;;;;;;5067616;28;20051;-68
2023/04/15 10:38:43;;;;;;;4.18;1.40;;;;;;;;;;5066499;28;20500;-68
2023/04/15 10:41:15;;;;;;;6.72;1.60;;;;;;;;;;5067437;28;20115;-68
2023/04/15 10:43:48;;;;;;;4.13;1.05;;;;;;;;;;5048754;28;20048;-68
2023/04/15 10:46:16;;;;;;;7.43;1.65;;;;;;;;;;5033481;28;20479;-68
2023/04/15 10:48:50;;;;;;;3.13;1.40;;;;;;;;;;5067323;28;20076;-68
2023/04/15 10:51:16;;;;;;;7.85;1.58;;;;;;;;;;5063954;28;20085;-68
2023/04/15 10:53:42;;;;;;;4.18;1.38;;;;;;;;;;5049831;28;20040;-68
2023/04/15 10:56:09;;;;;;;7.68;1.60;;;;;;;;;;5067672;28;20044;-68
2023/04/15 10:58:54;;;;;;;4.25;1.70;;;;;;;;;;5066003;28;20055;-68
2023/04/15 11:01:22;;;;;;;5.28;1.73;;;;;;;;;;5064429;28;20396;-68
2023/04/15 11:03:49;;;;;;;7.43;1.80;;;;;;;;;;5064905;28;20040;-68
2023/04/15 11:06:16;;;;;;;9.80;1.50;;;;;;;;;;5066280;28;20048;-68
2023/04/15 11:08:49;;;;;;;4.57;1.58;;;;;;;;;;5066854;28;20680;-68
2023/04/15 11:11:15;;;;;;;4.85;2.00;;;;;;;;;;5048262;28;20049;-68
2023/04/15 11:13:47;;;;;;;5.47;1.67;;;;;;;;;;5066135;28;20396;-67
2023/04/15 11:16:13;;;;;;;5.47;1.65;;;;;;;;;;5066567;28;20086;-68
2023/04/15 11:18:40;;;;;;;7.03;1.67;;;;;;;;;;5048113;28;20052;-68
2023/04/15 11:21:07;;;;;;;10.60;2.17;;;;;;;;;;5064824;28;20045;-68
2023/04/15 11:23:35;;;;;;;6.10;1.63;;;;;;;;;;5067120;28;20408;-68
2023/04/15 11:26:04;;;;;;;4.88;2.05;;;;;;;;;;5066677;28;20496;-67
2023/04/15 11:28:31;;;;;;;5.55;1.73;;;;;;;;;;5049397;28;20059;-67
2023/04/15 11:30:58;;;;;;;6.95;1.85;;;;;;;;;;5066245;28;20088;-67
2023/04/15 11:33:25;;;;;;;8.27;2.05;;;;;;;;;;5059065;28;20399;-68
2023/04/15 11:35:53;;;;;;;7.82;2.17;;;;;;;;;;5049140;28;20055;-67
2023/04/15 11:38:20;;;;;;;10.55;2.28;;;;;;;;;;5066489;28;20110;-68
2023/04/15 11:40:46;;;;;;;6.80;1.60;;;;;;;;;;5065136;28;20048;-68
2023/04/15 11:43:12;;;;;;;11.15;2.55;;;;;;;;;;5066413;28;20135;-68
2023/04/15 11:45:48;;;;;;;7.03;1.67;;;;;;;;;;5066038;28;20124;-68
2023/04/15 11:48:14;;;;;;;10.23;2.05;;;;;;;;;;5045098;28;20061;-67
2023/04/15 11:50:41;;;;;;;10.52;2.17;;;;;;;;;;5063595;28;20055;-67
2023/04/15 11:53:08;;;;;;;10.35;2.15;;;;;;;;;;5066318;28;20484;-68
2023/04/15 11:55:43;;;;;;;9.43;2.10;;;;;;;;;;5063175;28;20431;-68
2023/04/15 11:58:10;;;;;;;7.40;1.88;;;;;;;;;;5063450;28;20066;-68
2023/04/15 12:00:37;;;;;;;11.57;2.45;;;;;;;;;;5048932;28;20428;-68
2023/04/15 12:03:12;;;;;;;11.07;2.00;;;;;;;;;;5065282;28;20093;-67
2023/04/15 12:05:57;;;;;;;10.95;1.83;;;;;;;;;;5066714;28;20044;-67
2023/04/15 12:08:24;;;;;;;9.52;2.20;;;;;;;;;;5065351;28;20153;-67
2023/04/15 12:10:50;;;;;;;6.35;1.58;;;;;;;;;;5065884;28;20071;-68
2023/04/15 12:13:16;;;;;;;7.63;1.67;;;;;;;;;;5048982;28;20047;-68
2023/04/15 12:15:43;;;;;;;8.68;1.63;;;;;;;;;;5065359;28;20052;-68
2023/04/15 12:18:16;;;;;;;11.93;1.95;;;;;;;;;;5063603;28;20047;-67
2023/04/15 12:20:44;;;;;;;12.52;3.05;;;;;;;;;;5070080;28;20659;-67
2023/04/15 12:23:10;;;;;;;9.45;2.00;;;;;;;;;;5068761;28;20056;-68
2023/04/15 12:25:36;;;;;;;12.27;2.28;;;;;;;;;;5069835;28;20043;-68
2023/04/15 12:28:10;;;;;;;9.75;1.73;;;;;;;;;;5069980;28;20122;-67
2023/04/15 12:30:36;;;;;;;9.98;1.83;;;;;;;;;;5067791;28;20067;-67
2023/04/15 12:33:02;;;;;;;7.05;1.40;;;;;;;;;;5070715;28;20040;-68
2023/04/15 12:35:28;;;;;;;9.38;1.88;;;;;;;;;;5052451;28;20058;-68
2023/04/15 12:37:55;;;;;;;13.50;1.70;;;;;;;;;;5068832;28;20059;-67
2023/04/15 12:40:21;;;;;;;7.18;1.20;;;;;;;;;;5069653;28;20043;-68
2023/04/15 12:42:47;;;;;;;8.60;2.40;;;;;;;;;;5069436;28;20078;-67
2023/04/15 12:45:13;;;;;;;7.72;1.85;;;;;;;;;;5047666;28;20055;-68
2023/04/15 12:47:39;;;;;;;8.85;1.73;;;;;;;;;;5070600;28;20467;-67
2023/04/15 12:50:06;;;;;;;11.60;1.50;;;;;;;;;;5050763;28;20661;-68
2023/04/15 12:52:32;;;;;;;7.95;1.60;;;;;;;;;;5068400;28;20041;-67
2023/04/15 12:54:59;;;;;;;8.82;1.40;;;;;;;;;;5069741;28;20081;-67
2023/04/15 12:57:25;;;;;;;5.72;1.13;;;;;;;;;;5068056;28;20044;-68
2023/04/15 12:59:51;;;;;;;9.27;1.73;;;;;;;;;;5070218;28;20089;-68
2023/04/15 13:02:19;;;;;;;9.32;1.52;;;;;;;;;;5069721;28;20126;-67
2023/04/15 13:04:46;;;;;;;14.55;2.38;;;;;;;;;;5067643;28;20874;-67
2023/04/15 13:07:14;;;;;;;8.73;1.80;;;;;;;;;;5069253;28;20392;-67
2023/04/15 13:09:40;;;;;;;12.68;2.17;;;;;;;;;;5065663;28;20138;-67
2023/04/15 13:12:06;;;;;;;7.72;1.73;;;;;;;;;;5068398;28;20040;-67
2023/04/15 13:14:32;;;;;;;8.00;2.03;;;;;;;;;;5069964;28;20484;-68
2023/04/15 13:16:59;;;;;;;11.02;1.98;;;;;;;;;;5068538;28;20045;-68
2023/04/15 13:19:25;;;;;;;23.52;4.32;;;;;;;;;;5067692;28;20044;-68
2023/04/15 13:21:51;;;;;;;9.27;1.75;;;;;;;;;;5052014;28;20056;-68
2023/04/15 13:24:17;;;;;;;9.13;2.70;;;;;;;;;;5050515;28;20504;-68
2023/04/15 13:26:44;;;;;;;12.65;1.45;;;;;;;;;;5068624;28;20063;-65
2023/04/15 13:29:11;;;;;;;14.02;2.35;;;;;;;;;;5068249;28;20043;-66
2023/04/15 13:31:37;;;;;;;14.35;2.08;;;;;;;;;;5068725;28;20053;-66
2023/04/15 13:34:03;;;;;;;12.77;2.30;;;;;;;;;;5068012;28;20119;-67
2023/04/15 13:36:29;;;;;;;13.38;2.63;;;;;;;;;;5068515;28;20044;-67
2023/04/15 13:38:56;;;;;;;11.38;1.63;;;;;;;;;;5068801;28;20041;-67
2023/04/15 13:41:22;;;;;;;8.93;2.08;;;;;;;;;;5068526;28;20114;-67
2023/04/15 13:43:48;;;;;;;10.23;2.10;;;;;;;;;;5068346;28;20040;-67
2023/04/15 13:46:15;;;;;;;13.55;2.10;;;;;;;;;;5068519;28;20044;-67
2023/04/15 13:48:41;;;;;;;13.07;2.08;;;;;;;;;;5066418;28;20048;-67
2023/04/15 13:51:07;;;;;;;8.13;1.70;;;;;;;;;;5069305;28;20115;-67
2023/04/15 13:53:34;;;;;;;14.13;3.75;;;;;;;;;;5067989;28;20178;-67
2023/04/15 13:56:01;;;;;;;9.80;1.67;;;;;;;;;;5065574;28;20055;-67
2023/04/15 13:58:27;;;;;;;9.40;1.38;;;;;;;;;;5068459;28;20037;-67
2023/04/15 14:00:53;;;;;;;6.80;1.48;;;;;;;;;;5067610;28;20400;-67
2023/04/15 14:03:19;;;;;;;11.27;2.40;;;;;;;;;;5051026;28;20464;-67
2023/04/15 14:05:45;;;;;;;15.98;2.35;;;;;;;;;;5049966;28;20542;-67
2023/04/15 14:08:11;;;;;;;11.43;1.70;;;;;;;;;;5067465;28;20123;-67
2023/04/15 14:10:38;;;;;;;6.72;1.55;;;;;;;;;;5067545;28;20037;-67
2023/04/15 14:13:04;;;;;;;8.35;1.58;;;;;;;;;;5067934;28;20048;-67
2023/04/15 14:15:30;;;;;;;8.88;1.88;;;;;;;;;;5049749;28;20044;-67
2023/04/15 14:17:57;;;;;;;10.93;2.13;;;;;;;;;;5068004;28;20052;-67
2023/04/15 14:20:23;;;;;;;7.88;1.33;;;;;;;;;;5067235;28;20037;-67
2023/04/15 14:22:49;;;;;;;10.32;1.65;;;;;;;;;;5048574;28;20040;-67
2023/04/15 14:25:16;;;;;;;7.50;1.80;;;;;;;;;;5067471;28;20081;-67